x

Big Carlos Pass, Fl (bgcf1) Weather Station

10:54am - Wed 22nd Oct 2014 All times are EDT. -4 hours from GMT.

  • Wind
    5mph, 6mph gusts
  • Air Temp 77°f
  • Sea Pressure 1015.5mb
  • Big Carlos Pass, Fl
  • Big Carlos Pass, Fl

More Historic Weather Station data

Upgrade to MSW Pro to gain access to the past 30 days of data for over 8000 Wavebouys and Weather Stations around the globe.

Join Pro

Comparision Forecast

View Surf forecast
   
Wed 10/22 10:54am 5 6 mph 1015.5mb 77f
10:48am 3 5 mph 1015.6mb 77f
9:54am 2 3 mph 1015.6mb 75f
9:48am 3 5 mph 1015.6mb 75f
8:54am 5 6 mph 1015.4mb 74f
8:48am 5 6 mph 1015.3mb 74f
7:54am 5 6 mph 1014.7mb 74f
7:48am 6
mph
1014.6mb 74f
6:54am 2 3 mph 1014.2mb 74f
6:48am 2 5 mph 1014.1mb 74f
5:54am 2
mph
1013.6mb 74f
5:48am 2 3 mph 1013.5mb 74f
4:54am 2 3 mph 1013.3mb 74f
4:48am 2
mph
1013.2mb 74f
3:54am 2 3 mph 1013mb 75f
3:48am 1 2 mph 1013.1mb 75f
2:54am 2 3 mph 1013.4mb 75f
2:48am 2 3 mph 1013.4mb 75f
1:54am 3 5 mph 1013.9mb 75f
1:48am 3 5 mph 1013.9mb 75f
12:54am 5 6 mph 1014.4mb 75f
12:48am 5 7 mph 1014.5mb 75f
Tue 10/21 11:54pm 3 6 mph 1014.9mb 76f
11:48pm 5 6 mph 1014.9mb 76f
10:54pm 3 6 mph 1015mb 76f
10:48pm 5 6 mph 1014.9mb 76f
9:54pm 5 6 mph 1014.8mb 76f
9:48pm 6 8 mph 1014.6mb 77f
8:54pm 6 7 mph 1014.4mb 77f
8:48pm 6 8 mph 1014.3mb 77f
7:54pm 5
mph
1014mb 77f
7:48pm 3 6 mph 1013.9mb 77f
6:54pm 2 3 mph 1013.7mb 78f
6:48pm  -  2 mph 1013.6mb 78f
5:54pm 3 6 mph 1012.9mb 78f
5:48pm 5 6 mph 1012.9mb 78f
4:54pm 7 9 mph 1012.8mb 78f
4:48pm 8 9 mph 1012.8mb 78f
3:54pm 15 21 mph 1012.9mb 78f
3:48pm 14 21 mph 1012.9mb 78f
2:54pm 18 23 mph 1013.4mb 79f
2:48pm 18 22 mph 1013.5mb 79f
1:54pm 16 18 mph 1014.5mb 78f
1:48pm 15 18 mph 1014.4mb 78f
12:54pm 20 23 mph 1014.5mb 77f
12:48pm 20 22 mph 1014.6mb 78f
11:54am 6 7 mph 1015.1mb 80f
11:48am 8 9 mph 1015.2mb 80f
10:54am 6 7 mph 1015.5mb 79f
10:48am 5 7 mph 1015.4mb 79f
9:54am 3 6 mph 1015mb 78f
9:48am 5 6 mph 1015mb 77f
8:54am 5 7 mph 1014.7mb 76f
8:48am 5 6 mph 1014.5mb 76f
7:54am 3 6 mph 1014.2mb 76f
7:48am 3 5 mph 1014.1mb 76f
6:54am 5 6 mph 1013.7mb 75f
6:48am 3 5 mph 1013.6mb 75f
5:54am 5 6 mph 1013.4mb 76f
5:48am 5 6 mph 1013.4mb 76f
4:54am 3 6 mph 1013.4mb 76f
4:48am 5 7 mph 1013.5mb 76f
3:54am 3 5 mph 1013.3mb 76f
3:48am 1 3 mph 1013.4mb 76f
2:54am 3 5 mph 1013.4mb 76f
2:48am 3 6 mph 1013.4mb 76f
1:54am 6 7 mph 1014.1mb 76f
1:48am 6 7 mph 1014.3mb 76f
12:54am 7 9 mph 1014.5mb 77f
12:48am 6 7 mph 1014.7mb 77f
Mon 10/20 11:54pm 3 6 mph 1015.7mb 78f
11:48pm 3 6 mph 1015.6mb 78f
10:54pm 5 7 mph 1015.6mb 79f
10:48pm 5 6 mph 1015.6mb 79f
9:54pm 5 6 mph 1015mb 80f
9:48pm 3 5 mph 1015mb 80f
8:54pm  -  2 mph 1014.9mb 82f
8:48pm  -  1 mph 1014.7mb 82f
7:54pm 2 3 mph 1014.1mb 81f
7:48pm 3
mph
1014mb 82f
6:54pm 3
mph
1013.9mb 82f
6:48pm 3 5 mph 1013.9mb 82f
5:54pm 3 5 mph 1013.6mb 84f
5:48pm 5
mph
1013.6mb 84f
4:54pm 7
mph
1013.9mb 84f
4:48pm 7 8 mph 1013.9mb 83f
3:54pm 5 6 mph 1013.9mb 85f
3:48pm 5 6 mph 1013.9mb 85f
2:54pm  -  2 mph 1014.3mb 88f
2:48pm  -  1 mph 1014.4mb 87f
1:54pm 3 5 mph 1015mb 84f
1:48pm 2 3 mph 1015mb 83f
12:54pm 5 8 mph 1015.9mb 83f
12:48pm 5 7 mph 1016.1mb 84f
11:54am 8 10 mph 1017.1mb 82f
11:48am 6 8 mph 1017.1mb 82f
10:54am 6 8 mph 1017.3mb 80f
10:48am 6 7 mph 1017.3mb 80f
9:54am 6 7 mph 1017.6mb 77f
9:48am 6 9 mph 1017.6mb 76f
8:54am 6 8 mph 1017mb 73f
8:48am 5 7 mph 1016.9mb 73f
7:54am 6 8 mph 1016.7mb 70f
7:48am 7 8 mph 1016.6mb 70f
6:54am 5 6 mph 1016.3mb 71f
6:48am 5 6 mph 1016.3mb 71f
5:54am 3 5 mph 1016.2mb 71f
5:48am 5 6 mph 1016.1mb 71f
4:54am 3 7 mph 1015.8mb 72f
4:48am 3 6 mph 1015.8mb 72f
3:54am 6 7 mph 1015.9mb 72f
3:48am 5 7 mph 1015.8mb 72f
2:54am 5 8 mph 1016mb 72f
2:48am 6 9 mph 1016.1mb 72f
1:54am 5 7 mph 1016.5mb 73f
1:48am 6 7 mph 1016.6mb 73f
Sun 10/19 11:54pm 8 11 mph 1017.1mb 74f
11:48pm 7 9 mph 1017mb 74f
10:54pm 7 9 mph 1017mb 76f
10:48pm 8 10 mph 1016.9mb 75f
9:54pm 7 10 mph 1016.3mb 77f
9:48pm 6 8 mph 1016.3mb 77f
8:54pm 5 7 mph 1016.1mb 78f
8:48pm 5 7 mph 1016.1mb 78f
7:54pm 6 10 mph 1015.5mb 80f
7:48pm 6 10 mph 1015.4mb 80f
6:54pm 3 5 mph 1015mb 80f
6:48pm 5 6 mph 1015mb 81f
5:54pm 6 9 mph 1014.7mb 81f
5:48pm 6 10 mph 1014.6mb 81f
4:54pm 9 11 mph 1014.6mb 79f
4:48pm 9 11 mph 1014.7mb 79f
3:54pm 9 11 mph 1014.8mb 80f
3:48pm 10 11 mph 1014.9mb 80f